sensor_id;sensor_type;location;lat;lon;timestamp;temperature;humidity
20345;DHT22;10330;48.816;9.278;2022-10-22T00:01:26;14.40;99.90
20345;DHT22;10330;48.816;9.278;2022-10-22T00:03:56;14.40;99.90
20345;DHT22;10330;48.816;9.278;2022-10-22T00:06:23;14.30;99.90
20345;DHT22;10330;48.816;9.278;2022-10-22T00:08:49;14.20;99.90
20345;DHT22;10330;48.816;9.278;2022-10-22T00:11:17;14.30;99.90
20345;DHT22;10330;48.816;9.278;2022-10-22T00:13:45;14.20;99.90
20345;DHT22;10330;48.816;9.278;2022-10-22T00:16:12;14.10;99.90
20345;DHT22;10330;48.816;9.278;2022-10-22T00:18:38;14.10;99.90
20345;DHT22;10330;48.816;9.278;2022-10-22T00:21:05;14.00;99.90
20345;DHT22;10330;48.816;9.278;2022-10-22T00:23:32;14.10;99.90
20345;DHT22;10330;48.816;9.278;2022-10-22T00:25:59;14.10;99.90
20345;DHT22;10330;48.816;9.278;2022-10-22T00:28:25;14.10;99.90
20345;DHT22;10330;48.816;9.278;2022-10-22T00:30:56;14.10;99.90
20345;DHT22;10330;48.816;9.278;2022-10-22T00:33:23;14.20;99.90
20345;DHT22;10330;48.816;9.278;2022-10-22T00:35:49;14.00;99.90
20345;DHT22;10330;48.816;9.278;2022-10-22T00:38:16;14.00;99.90
20345;DHT22;10330;48.816;9.278;2022-10-22T00:40:42;14.10;99.90
20345;DHT22;10330;48.816;9.278;2022-10-22T00:43:13;14.10;99.90
20345;DHT22;10330;48.816;9.278;2022-10-22T00:45:42;14.10;99.90
20345;DHT22;10330;48.816;9.278;2022-10-22T00:48:21;14.00;99.90
20345;DHT22;10330;48.816;9.278;2022-10-22T00:51:03;14.00;99.90
20345;DHT22;10330;48.816;9.278;2022-10-22T00:53:41;14.00;99.90
20345;DHT22;10330;48.816;9.278;2022-10-22T00:56:09;13.90;99.90
20345;DHT22;10330;48.816;9.278;2022-10-22T00:58:38;13.90;99.90
20345;DHT22;10330;48.816;9.278;2022-10-22T01:01:08;13.80;99.90
20345;DHT22;10330;48.816;9.278;2022-10-22T01:03:37;13.80;99.90
20345;DHT22;10330;48.816;9.278;2022-10-22T01:06:04;13.80;99.90
20345;DHT22;10330;48.816;9.278;2022-10-22T01:08:54;13.80;99.90
20345;DHT22;10330;48.816;9.278;2022-10-22T01:14:12;13.70;99.90
20345;DHT22;10330;48.816;9.278;2022-10-22T01:16:57;13.70;99.90
20345;DHT22;10330;48.816;9.278;2022-10-22T01:19:40;13.70;99.90
20345;DHT22;10330;48.816;9.278;2022-10-22T01:22:29;13.70;99.90
20345;DHT22;10330;48.816;9.278;2022-10-22T01:25:23;13.70;99.90
20345;DHT22;10330;48.816;9.278;2022-10-22T01:28:10;13.70;99.90
20345;DHT22;10330;48.816;9.278;2022-10-22T01:30:39;13.70;99.90
20345;DHT22;10330;48.816;9.278;2022-10-22T01:33:09;13.70;99.90
20345;DHT22;10330;48.816;9.278;2022-10-22T01:35:39;13.70;99.90
20345;DHT22;10330;48.816;9.278;2022-10-22T01:38:13;13.70;99.90
20345;DHT22;10330;48.816;9.278;2022-10-22T01:40:40;13.70;99.90
20345;DHT22;10330;48.816;9.278;2022-10-22T01:43:09;13.80;99.90
20345;DHT22;10330;48.816;9.278;2022-10-22T01:45:40;13.80;99.90
20345;DHT22;10330;48.816;9.278;2022-10-22T01:48:37;13.90;99.90
20345;DHT22;10330;48.816;9.278;2022-10-22T01:54:20;13.90;99.90
20345;DHT22;10330;48.816;9.278;2022-10-22T02:00:04;13.90;99.90
20345;DHT22;10330;48.816;9.278;2022-10-22T02:02:42;13.80;99.90
20345;DHT22;10330;48.816;9.278;2022-10-22T02:05:35;13.80;99.90
20345;DHT22;10330;48.816;9.278;2022-10-22T02:08:09;13.70;99.90
20345;DHT22;10330;48.816;9.278;2022-10-22T02:10:38;13.70;99.90
20345;DHT22;10330;48.816;9.278;2022-10-22T02:13:09;13.70;99.90
20345;DHT22;10330;48.816;9.278;2022-10-22T02:15:38;13.70;99.90
20345;DHT22;10330;48.816;9.278;2022-10-22T02:18:07;13.70;99.90
20345;DHT22;10330;48.816;9.278;2022-10-22T02:20:35;13.70;99.90
20345;DHT22;10330;48.816;9.278;2022-10-22T02:23:04;13.70;99.90
20345;DHT22;10330;48.816;9.278;2022-10-22T02:25:34;13.70;99.90
20345;DHT22;10330;48.816;9.278;2022-10-22T02:28:12;13.70;99.90
20345;DHT22;10330;48.816;9.278;2022-10-22T02:30:43;13.60;99.90
20345;DHT22;10330;48.816;9.278;2022-10-22T02:33:21;13.60;99.90
20345;DHT22;10330;48.816;9.278;2022-10-22T02:35:51;13.60;99.90
20345;DHT22;10330;48.816;9.278;2022-10-22T02:38:20;13.60;99.90
20345;DHT22;10330;48.816;9.278;2022-10-22T02:40:47;13.50;99.90
20345;DHT22;10330;48.816;9.278;2022-10-22T02:43:14;13.60;99.90
20345;DHT22;10330;48.816;9.278;2022-10-22T02:45:40;13.60;99.90
20345;DHT22;10330;48.816;9.278;2022-10-22T02:48:06;13.60;99.90
20345;DHT22;10330;48.816;9.278;2022-10-22T02:50:33;13.70;99.90
20345;DHT22;10330;48.816;9.278;2022-10-22T02:52:59;13.70;99.90
20345;DHT22;10330;48.816;9.278;2022-10-22T02:55:25;13.80;99.90
20345;DHT22;10330;48.816;9.278;2022-10-22T02:57:51;13.80;99.90
20345;DHT22;10330;48.816;9.278;2022-10-22T03:00:18;13.70;99.90
20345;DHT22;10330;48.816;9.278;2022-10-22T03:02:45;13.80;99.90
20345;DHT22;10330;48.816;9.278;2022-10-22T03:05:11;13.70;99.90
20345;DHT22;10330;48.816;9.278;2022-10-22T03:07:41;13.80;99.90
20345;DHT22;10330;48.816;9.278;2022-10-22T03:10:08;13.80;99.90
20345;DHT22;10330;48.816;9.278;2022-10-22T03:12:34;13.80;99.90
20345;DHT22;10330;48.816;9.278;2022-10-22T03:15:01;13.80;99.90
20345;DHT22;10330;48.816;9.278;2022-10-22T03:17:27;13.80;99.90
20345;DHT22;10330;48.816;9.278;2022-10-22T03:19:53;13.70;99.90
20345;DHT22;10330;48.816;9.278;2022-10-22T03:22:26;13.80;99.90
20345;DHT22;10330;48.816;9.278;2022-10-22T03:24:56;13.80;99.90
20345;DHT22;10330;48.816;9.278;2022-10-22T03:27:24;13.80;99.90
20345;DHT22;10330;48.816;9.278;2022-10-22T03:29:52;13.80;99.90
20345;DHT22;10330;48.816;9.278;2022-10-22T03:32:19;13.80;99.90
20345;DHT22;10330;48.816;9.278;2022-10-22T03:34:45;13.80;99.90
20345;DHT22;10330;48.816;9.278;2022-10-22T03:37:12;13.80;99.90
20345;DHT22;10330;48.816;9.278;2022-10-22T03:39:38;13.80;99.90
20345;DHT22;10330;48.816;9.278;2022-10-22T03:42:05;13.90;99.90
20345;DHT22;10330;48.816;9.278;2022-10-22T03:44:35;13.80;99.90
20345;DHT22;10330;48.816;9.278;2022-10-22T03:47:01;13.80;99.90
20345;DHT22;10330;48.816;9.278;2022-10-22T03:49:27;13.80;99.90
20345;DHT22;10330;48.816;9.278;2022-10-22T03:52:20;13.80;99.90
20345;DHT22;10330;48.816;9.278;2022-10-22T03:58:34;13.70;99.90
20345;DHT22;10330;48.816;9.278;2022-10-22T04:01:08;13.80;99.90
20345;DHT22;10330;48.816;9.278;2022-10-22T04:03:34;13.70;99.90
20345;DHT22;10330;48.816;9.278;2022-10-22T04:06:03;13.70;99.90
20345;DHT22;10330;48.816;9.278;2022-10-22T04:08:30;13.70;99.90
20345;DHT22;10330;48.816;9.278;2022-10-22T04:10:56;13.70;99.90
20345;DHT22;10330;48.816;9.278;2022-10-22T04:13:23;13.70;99.90
20345;DHT22;10330;48.816;9.278;2022-10-22T04:15:49;13.70;99.90
20345;DHT22;10330;48.816;9.278;2022-10-22T04:18:20;13.60;99.90
20345;DHT22;10330;48.816;9.278;2022-10-22T04:20:47;13.60;99.90
20345;DHT22;10330;48.816;9.278;2022-10-22T04:23:13;13.60;99.90
20345;DHT22;10330;48.816;9.278;2022-10-22T04:25:40;13.60;99.90
20345;DHT22;10330;48.816;9.278;2022-10-22T04:28:07;13.60;99.90
20345;DHT22;10330;48.816;9.278;2022-10-22T04:30:35;13.50;99.90
20345;DHT22;10330;48.816;9.278;2022-10-22T04:33:02;13.50;99.90
20345;DHT22;10330;48.816;9.278;2022-10-22T04:35:28;13.50;99.90
20345;DHT22;10330;48.816;9.278;2022-10-22T04:37:55;13.40;99.90
20345;DHT22;10330;48.816;9.278;2022-10-22T04:40:21;13.50;99.90
20345;DHT22;10330;48.816;9.278;2022-10-22T04:42:48;13.50;99.90
20345;DHT22;10330;48.816;9.278;2022-10-22T04:45:14;13.50;99.90
20345;DHT22;10330;48.816;9.278;2022-10-22T04:47:40;13.40;99.90
20345;DHT22;10330;48.816;9.278;2022-10-22T04:50:07;13.50;99.90
20345;DHT22;10330;48.816;9.278;2022-10-22T04:52:33;13.50;99.90
20345;DHT22;10330;48.816;9.278;2022-10-22T04:55:03;13.50;99.90
20345;DHT22;10330;48.816;9.278;2022-10-22T04:57:33;13.50;99.90
20345;DHT22;10330;48.816;9.278;2022-10-22T04:59:59;13.50;99.90
20345;DHT22;10330;48.816;9.278;2022-10-22T05:02:25;13.50;99.90
20345;DHT22;10330;48.816;9.278;2022-10-22T05:04:52;13.60;99.90
20345;DHT22;10330;48.816;9.278;2022-10-22T05:07:18;13.50;99.90
20345;DHT22;10330;48.816;9.278;2022-10-22T05:09:44;13.30;99.90
20345;DHT22;10330;48.816;9.278;2022-10-22T05:12:10;13.40;99.90
20345;DHT22;10330;48.816;9.278;2022-10-22T05:14:36;13.40;99.90
20345;DHT22;10330;48.816;9.278;2022-10-22T05:17:02;13.40;99.90
20345;DHT22;10330;48.816;9.278;2022-10-22T05:19:30;13.50;99.90
20345;DHT22;10330;48.816;9.278;2022-10-22T05:21:58;13.50;99.90
20345;DHT22;10330;48.816;9.278;2022-10-22T05:24:27;13.50;99.90
20345;DHT22;10330;48.816;9.278;2022-10-22T05:26:55;13.60;99.90
20345;DHT22;10330;48.816;9.278;2022-10-22T05:29:22;13.60;99.90
20345;DHT22;10330;48.816;9.278;2022-10-22T05:31:49;13.60;99.90
20345;DHT22;10330;48.816;9.278;2022-10-22T05:34:16;13.70;99.90
20345;DHT22;10330;48.816;9.278;2022-10-22T05:36:42;13.70;99.90
20345;DHT22;10330;48.816;9.278;2022-10-22T05:39:08;13.80;99.90
20345;DHT22;10330;48.816;9.278;2022-10-22T05:41:35;13.80;99.90
20345;DHT22;10330;48.816;9.278;2022-10-22T05:44:02;13.80;99.90
20345;DHT22;10330;48.816;9.278;2022-10-22T05:46:29;13.70;99.90
20345;DHT22;10330;48.816;9.278;2022-10-22T05:49:00;13.80;99.90
20345;DHT22;10330;48.816;9.278;2022-10-22T05:51:29;13.80;99.90
20345;DHT22;10330;48.816;9.278;2022-10-22T05:53:58;13.80;99.90
20345;DHT22;10330;48.816;9.278;2022-10-22T05:56:26;13.80;99.90
20345;DHT22;10330;48.816;9.278;2022-10-22T05:58:52;13.80;99.90
20345;DHT22;10330;48.816;9.278;2022-10-22T06:01:27;13.70;99.90
20345;DHT22;10330;48.816;9.278;2022-10-22T06:03:55;13.80;99.90
20345;DHT22;10330;48.816;9.278;2022-10-22T06:11:41;13.80;99.90
20345;DHT22;10330;48.816;9.278;2022-10-22T06:14:08;13.80;99.90
20345;DHT22;10330;48.816;9.278;2022-10-22T06:16:34;13.90;99.90
20345;DHT22;10330;48.816;9.278;2022-10-22T06:19:01;13.80;99.90
20345;DHT22;10330;48.816;9.278;2022-10-22T06:21:28;13.80;99.90
20345;DHT22;10330;48.816;9.278;2022-10-22T06:23:56;13.80;99.90
20345;DHT22;10330;48.816;9.278;2022-10-22T06:26:22;13.90;99.90
20345;DHT22;10330;48.816;9.278;2022-10-22T06:28:48;13.90;99.90
20345;DHT22;10330;48.816;9.278;2022-10-22T06:31:14;13.80;99.90
20345;DHT22;10330;48.816;9.278;2022-10-22T06:33:41;13.90;99.90
20345;DHT22;10330;48.816;9.278;2022-10-22T06:36:20;13.90;99.90
20345;DHT22;10330;48.816;9.278;2022-10-22T06:38:49;13.90;99.90
20345;DHT22;10330;48.816;9.278;2022-10-22T06:41:16;13.90;99.90
20345;DHT22;10330;48.816;9.278;2022-10-22T06:43:43;14.00;99.90
20345;DHT22;10330;48.816;9.278;2022-10-22T06:46:10;14.00;99.90
20345;DHT22;10330;48.816;9.278;2022-10-22T06:48:37;14.00;99.90
20345;DHT22;10330;48.816;9.278;2022-10-22T06:51:08;14.00;99.90
20345;DHT22;10330;48.816;9.278;2022-10-22T06:53:34;14.00;99.90
20345;DHT22;10330;48.816;9.278;2022-10-22T06:56:07;14.00;99.90
20345;DHT22;10330;48.816;9.278;2022-10-22T06:58:33;14.10;99.90
20345;DHT22;10330;48.816;9.278;2022-10-22T07:01:05;14.20;99.90
20345;DHT22;10330;48.816;9.278;2022-10-22T07:03:31;14.10;99.90
20345;DHT22;10330;48.816;9.278;2022-10-22T07:05:59;14.10;99.90
20345;DHT22;10330;48.816;9.278;2022-10-22T07:08:26;14.10;99.90
20345;DHT22;10330;48.816;9.278;2022-10-22T07:10:52;14.20;99.90
20345;DHT22;10330;48.816;9.278;2022-10-22T07:13:19;14.10;99.90
20345;DHT22;10330;48.816;9.278;2022-10-22T07:15:45;14.20;99.90
20345;DHT22;10330;48.816;9.278;2022-10-22T07:18:11;14.20;99.90
20345;DHT22;10330;48.816;9.278;2022-10-22T07:20:37;14.30;99.90
20345;DHT22;10330;48.816;9.278;2022-10-22T07:23:03;14.30;99.90
20345;DHT22;10330;48.816;9.278;2022-10-22T07:25:29;14.30;99.90
20345;DHT22;10330;48.816;9.278;2022-10-22T07:27:56;14.40;99.90
20345;DHT22;10330;48.816;9.278;2022-10-22T07:30:22;14.40;99.90
20345;DHT22;10330;48.816;9.278;2022-10-22T07:32:48;14.40;99.90
20345;DHT22;10330;48.816;9.278;2022-10-22T07:35:14;14.50;99.90
20345;DHT22;10330;48.816;9.278;2022-10-22T07:37:40;14.50;99.90
20345;DHT22;10330;48.816;9.278;2022-10-22T07:40:07;14.50;99.90
20345;DHT22;10330;48.816;9.278;2022-10-22T07:42:33;14.60;99.90
20345;DHT22;10330;48.816;9.278;2022-10-22T07:45:00;14.60;99.90
20345;DHT22;10330;48.816;9.278;2022-10-22T07:47:26;14.60;99.90
20345;DHT22;10330;48.816;9.278;2022-10-22T07:49:52;14.60;99.90
20345;DHT22;10330;48.816;9.278;2022-10-22T07:52:18;14.80;99.90
20345;DHT22;10330;48.816;9.278;2022-10-22T07:54:45;14.90;99.90
20345;DHT22;10330;48.816;9.278;2022-10-22T07:57:11;15.00;99.90
20345;DHT22;10330;48.816;9.278;2022-10-22T07:59:37;14.90;99.90
20345;DHT22;10330;48.816;9.278;2022-10-22T08:02:03;15.00;99.90
20345;DHT22;10330;48.816;9.278;2022-10-22T08:04:29;15.00;99.90
20345;DHT22;10330;48.816;9.278;2022-10-22T08:06:55;14.90;99.90
20345;DHT22;10330;48.816;9.278;2022-10-22T08:09:24;14.90;99.90
20345;DHT22;10330;48.816;9.278;2022-10-22T08:11:50;15.00;99.90
20345;DHT22;10330;48.816;9.278;2022-10-22T08:14:16;14.90;99.90
20345;DHT22;10330;48.816;9.278;2022-10-22T08:16:43;14.90;99.90
20345;DHT22;10330;48.816;9.278;2022-10-22T08:19:09;14.90;99.90
20345;DHT22;10330;48.816;9.278;2022-10-22T08:21:35;15.00;99.90
20345;DHT22;10330;48.816;9.278;2022-10-22T08:24:02;14.90;99.90
20345;DHT22;10330;48.816;9.278;2022-10-22T08:26:28;15.00;99.90
20345;DHT22;10330;48.816;9.278;2022-10-22T08:28:54;14.90;99.90
20345;DHT22;10330;48.816;9.278;2022-10-22T08:31:20;14.90;99.90
20345;DHT22;10330;48.816;9.278;2022-10-22T08:33:46;15.00;99.90
20345;DHT22;10330;48.816;9.278;2022-10-22T08:36:12;15.00;99.90
20345;DHT22;10330;48.816;9.278;2022-10-22T08:38:39;15.10;99.90
20345;DHT22;10330;48.816;9.278;2022-10-22T08:41:09;15.20;99.90
20345;DHT22;10330;48.816;9.278;2022-10-22T08:44:06;15.20;99.90
20345;DHT22;10330;48.816;9.278;2022-10-22T08:46:51;15.20;99.90
20345;DHT22;10330;48.816;9.278;2022-10-22T08:49:26;15.40;99.90
20345;DHT22;10330;48.816;9.278;2022-10-22T08:51:55;15.30;99.90
20345;DHT22;10330;48.816;9.278;2022-10-22T09:00:12;15.50;99.90
20345;DHT22;10330;48.816;9.278;2022-10-22T09:03:11;15.60;99.90
20345;DHT22;10330;48.816;9.278;2022-10-22T09:08:18;15.70;99.90
20345;DHT22;10330;48.816;9.278;2022-10-22T09:10:48;15.80;99.90
20345;DHT22;10330;48.816;9.278;2022-10-22T09:13:19;15.80;99.90
20345;DHT22;10330;48.816;9.278;2022-10-22T09:15:54;15.80;99.90
20345;DHT22;10330;48.816;9.278;2022-10-22T09:22:06;16.10;99.90
20345;DHT22;10330;48.816;9.278;2022-10-22T09:24:19;16.10;99.90
20345;DHT22;10330;48.816;9.278;2022-10-22T09:26:46;16.20;99.90
20345;DHT22;10330;48.816;9.278;2022-10-22T09:29:18;16.20;99.90
20345;DHT22;10330;48.816;9.278;2022-10-22T09:31:45;16.20;99.90
20345;DHT22;10330;48.816;9.278;2022-10-22T09:34:14;16.20;99.90
20345;DHT22;10330;48.816;9.278;2022-10-22T09:36:40;16.20;99.90
20345;DHT22;10330;48.816;9.278;2022-10-22T09:39:43;16.30;99.90
20345;DHT22;10330;48.816;9.278;2022-10-22T09:42:16;16.40;99.90
20345;DHT22;10330;48.816;9.278;2022-10-22T09:44:43;16.50;99.90
20345;DHT22;10330;48.816;9.278;2022-10-22T09:47:38;16.60;99.90
20345;DHT22;10330;48.816;9.278;2022-10-22T09:53:13;16.70;99.90
20345;DHT22;10330;48.816;9.278;2022-10-22T09:55:42;16.80;99.90
20345;DHT22;10330;48.816;9.278;2022-10-22T09:58:12;16.80;99.90
20345;DHT22;10330;48.816;9.278;2022-10-22T10:00:42;17.00;99.90
20345;DHT22;10330;48.816;9.278;2022-10-22T10:03:18;17.10;99.90
20345;DHT22;10330;48.816;9.278;2022-10-22T10:05:47;17.20;99.90
20345;DHT22;10330;48.816;9.278;2022-10-22T10:08:15;17.30;99.90
20345;DHT22;10330;48.816;9.278;2022-10-22T10:10:58;17.40;99.90
20345;DHT22;10330;48.816;9.278;2022-10-22T10:16:00;17.60;99.90
20345;DHT22;10330;48.816;9.278;2022-10-22T10:18:53;17.80;99.90
20345;DHT22;10330;48.816;9.278;2022-10-22T10:24:09;17.90;99.90
20345;DHT22;10330;48.816;9.278;2022-10-22T10:40:49;19.30;99.90
20345;DHT22;10330;48.816;9.278;2022-10-22T10:53:59;20.60;99.90
20345;DHT22;10330;48.816;9.278;2022-10-22T11:23:48;21.90;99.90
20345;DHT22;10330;48.816;9.278;2022-10-22T11:26:32;22.00;99.90
20345;DHT22;10330;48.816;9.278;2022-10-22T11:29:10;22.30;99.90
20345;DHT22;10330;48.816;9.278;2022-10-22T11:31:39;22.90;99.90
20345;DHT22;10330;48.816;9.278;2022-10-22T11:34:09;23.60;99.90
20345;DHT22;10330;48.816;9.278;2022-10-22T11:36:38;24.00;99.90
20345;DHT22;10330;48.816;9.278;2022-10-22T11:39:05;24.40;99.90
20345;DHT22;10330;48.816;9.278;2022-10-22T11:41:56;23.90;99.90
20345;DHT22;10330;48.816;9.278;2022-10-22T11:44:37;23.60;99.90
20345;DHT22;10330;48.816;9.278;2022-10-22T11:47:51;23.90;99.90
20345;DHT22;10330;48.816;9.278;2022-10-22T11:50:24;24.80;99.90
20345;DHT22;10330;48.816;9.278;2022-10-22T11:53:05;25.40;99.90
20345;DHT22;10330;48.816;9.278;2022-10-22T11:55:52;25.80;99.90
20345;DHT22;10330;48.816;9.278;2022-10-22T11:58:40;25.80;99.90
20345;DHT22;10330;48.816;9.278;2022-10-22T12:04:15;25.90;99.90
20345;DHT22;10330;48.816;9.278;2022-10-22T12:07:01;25.60;99.90
20345;DHT22;10330;48.816;9.278;2022-10-22T12:09:29;24.90;99.90
20345;DHT22;10330;48.816;9.278;2022-10-22T12:12:11;24.40;99.90
20345;DHT22;10330;48.816;9.278;2022-10-22T12:14:58;24.00;99.90
20345;DHT22;10330;48.816;9.278;2022-10-22T12:17:26;24.30;99.90
20345;DHT22;10330;48.816;9.278;2022-10-22T12:20:04;24.60;99.90
20345;DHT22;10330;48.816;9.278;2022-10-22T12:22:37;25.30;99.90
20345;DHT22;10330;48.816;9.278;2022-10-22T12:25:25;25.60;99.90
20345;DHT22;10330;48.816;9.278;2022-10-22T12:28:03;25.90;99.90
20345;DHT22;10330;48.816;9.278;2022-10-22T12:30:32;26.40;99.90
20345;DHT22;10330;48.816;9.278;2022-10-22T12:33:04;26.60;99.90
20345;DHT22;10330;48.816;9.278;2022-10-22T12:35:33;27.10;99.90
20345;DHT22;10330;48.816;9.278;2022-10-22T12:38:12;27.70;99.90
20345;DHT22;10330;48.816;9.278;2022-10-22T12:40:39;27.50;99.90
20345;DHT22;10330;48.816;9.278;2022-10-22T12:43:17;27.40;99.90
20345;DHT22;10330;48.816;9.278;2022-10-22T12:45:46;27.40;99.90
20345;DHT22;10330;48.816;9.278;2022-10-22T12:48:23;27.60;99.90
20345;DHT22;10330;48.816;9.278;2022-10-22T12:50:52;27.90;99.90
20345;DHT22;10330;48.816;9.278;2022-10-22T12:53:37;28.00;99.90
20345;DHT22;10330;48.816;9.278;2022-10-22T12:56:12;28.50;99.90
20345;DHT22;10330;48.816;9.278;2022-10-22T13:01:36;28.60;99.90
20345;DHT22;10330;48.816;9.278;2022-10-22T13:04:19;28.60;99.90
20345;DHT22;10330;48.816;9.278;2022-10-22T13:07:03;28.90;99.90
20345;DHT22;10330;48.816;9.278;2022-10-22T13:09:40;29.10;99.90
20345;DHT22;10330;48.816;9.278;2022-10-22T13:12:11;29.00;99.90
20345;DHT22;10330;48.816;9.278;2022-10-22T13:14:45;28.30;99.90
20345;DHT22;10330;48.816;9.278;2022-10-22T13:17:19;27.80;99.90
20345;DHT22;10330;48.816;9.278;2022-10-22T13:22:30;26.70;99.90
20345;DHT22;10330;48.816;9.278;2022-10-22T13:25:21;26.10;99.90
20345;DHT22;10330;48.816;9.278;2022-10-22T13:27:50;25.90;99.90
20345;DHT22;10330;48.816;9.278;2022-10-22T13:32:55;26.60;99.90
20345;DHT22;10330;48.816;9.278;2022-10-22T13:35:26;26.40;99.90
20345;DHT22;10330;48.816;9.278;2022-10-22T13:37:53;26.00;99.90
20345;DHT22;10330;48.816;9.278;2022-10-22T13:40:20;25.70;99.90
20345;DHT22;10330;48.816;9.278;2022-10-22T13:42:46;25.30;99.90
20345;DHT22;10330;48.816;9.278;2022-10-22T13:45:13;24.80;99.90
20345;DHT22;10330;48.816;9.278;2022-10-22T13:47:41;24.50;99.90
20345;DHT22;10330;48.816;9.278;2022-10-22T13:50:14;24.10;99.90
20345;DHT22;10330;48.816;9.278;2022-10-22T13:52:50;23.70;99.90
20345;DHT22;10330;48.816;9.278;2022-10-22T13:55:25;23.30;99.90
20345;DHT22;10330;48.816;9.278;2022-10-22T13:58:09;22.90;99.90
20345;DHT22;10330;48.816;9.278;2022-10-22T14:00:41;23.10;99.90
20345;DHT22;10330;48.816;9.278;2022-10-22T14:03:11;23.10;99.90
20345;DHT22;10330;48.816;9.278;2022-10-22T14:05:38;23.00;99.90
20345;DHT22;10330;48.816;9.278;2022-10-22T14:08:10;22.90;99.90
20345;DHT22;10330;48.816;9.278;2022-10-22T14:10:37;23.50;99.90
20345;DHT22;10330;48.816;9.278;2022-10-22T14:13:11;23.90;99.90
20345;DHT22;10330;48.816;9.278;2022-10-22T14:15:48;24.40;99.90
20345;DHT22;10330;48.816;9.278;2022-10-22T14:18:20;24.90;99.90
20345;DHT22;10330;48.816;9.278;2022-10-22T14:20:51;25.50;99.90
20345;DHT22;10330;48.816;9.278;2022-10-22T14:23:20;25.40;99.90
20345;DHT22;10330;48.816;9.278;2022-10-22T14:25:47;25.40;99.90
20345;DHT22;10330;48.816;9.278;2022-10-22T14:28:16;25.20;99.90
20345;DHT22;10330;48.816;9.278;2022-10-22T14:30:42;25.30;99.90
20345;DHT22;10330;48.816;9.278;2022-10-22T14:33:20;25.50;99.90
20345;DHT22;10330;48.816;9.278;2022-10-22T14:35:48;25.60;99.90
20345;DHT22;10330;48.816;9.278;2022-10-22T14:38:15;25.60;99.90
20345;DHT22;10330;48.816;9.278;2022-10-22T14:40:41;25.70;99.90
20345;DHT22;10330;48.816;9.278;2022-10-22T14:43:15;25.80;99.90
20345;DHT22;10330;48.816;9.278;2022-10-22T14:45:41;25.90;99.90
20345;DHT22;10330;48.816;9.278;2022-10-22T14:48:08;26.00;99.90
20345;DHT22;10330;48.816;9.278;2022-10-22T14:50:34;26.00;99.90
20345;DHT22;10330;48.816;9.278;2022-10-22T14:53:00;26.10;99.90
20345;DHT22;10330;48.816;9.278;2022-10-22T14:55:27;26.20;99.90
20345;DHT22;10330;48.816;9.278;2022-10-22T14:57:54;26.10;99.90
20345;DHT22;10330;48.816;9.278;2022-10-22T15:00:20;25.90;99.90
20345;DHT22;10330;48.816;9.278;2022-10-22T15:02:47;25.80;99.90
20345;DHT22;10330;48.816;9.278;2022-10-22T15:05:14;25.60;99.90
20345;DHT22;10330;48.816;9.278;2022-10-22T15:07:40;25.30;99.90
20345;DHT22;10330;48.816;9.278;2022-10-22T15:10:07;25.00;99.90
20345;DHT22;10330;48.816;9.278;2022-10-22T15:12:34;24.60;99.90
20345;DHT22;10330;48.816;9.278;2022-10-22T15:15:01;24.20;99.90
20345;DHT22;10330;48.816;9.278;2022-10-22T15:17:27;23.80;99.90
20345;DHT22;10330;48.816;9.278;2022-10-22T15:19:53;23.40;99.90
20345;DHT22;10330;48.816;9.278;2022-10-22T15:22:24;23.00;99.90
20345;DHT22;10330;48.816;9.278;2022-10-22T15:24:50;22.70;99.90
20345;DHT22;10330;48.816;9.278;2022-10-22T15:27:18;22.40;99.90
20345;DHT22;10330;48.816;9.278;2022-10-22T15:29:45;22.20;99.90
20345;DHT22;10330;48.816;9.278;2022-10-22T15:32:11;21.80;99.90
20345;DHT22;10330;48.816;9.278;2022-10-22T15:34:39;21.80;99.90
20345;DHT22;10330;48.816;9.278;2022-10-22T15:40:34;21.40;99.90
20345;DHT22;10330;48.816;9.278;2022-10-22T15:43:00;21.20;99.90
20345;DHT22;10330;48.816;9.278;2022-10-22T15:45:26;21.20;99.90
20345;DHT22;10330;48.816;9.278;2022-10-22T15:47:53;21.00;99.90
20345;DHT22;10330;48.816;9.278;2022-10-22T15:50:19;20.90;99.90
20345;DHT22;10330;48.816;9.278;2022-10-22T15:52:48;20.80;99.90
20345;DHT22;10330;48.816;9.278;2022-10-22T15:55:15;20.70;99.90
20345;DHT22;10330;48.816;9.278;2022-10-22T15:57:42;20.50;99.90
20345;DHT22;10330;48.816;9.278;2022-10-22T16:00:08;20.40;99.90
20345;DHT22;10330;48.816;9.278;2022-10-22T16:02:44;20.30;99.90
20345;DHT22;10330;48.816;9.278;2022-10-22T16:05:10;20.10;99.90
20345;DHT22;10330;48.816;9.278;2022-10-22T16:07:36;20.10;99.90
20345;DHT22;10330;48.816;9.278;2022-10-22T16:10:03;19.90;99.90
20345;DHT22;10330;48.816;9.278;2022-10-22T16:12:30;19.90;99.90
20345;DHT22;10330;48.816;9.278;2022-10-22T16:14:56;19.80;99.90
20345;DHT22;10330;48.816;9.278;2022-10-22T16:17:22;19.70;99.90
20345;DHT22;10330;48.816;9.278;2022-10-22T16:19:49;19.60;99.90
20345;DHT22;10330;48.816;9.278;2022-10-22T16:22:16;19.50;99.90
20345;DHT22;10330;48.816;9.278;2022-10-22T16:24:42;19.40;99.90
20345;DHT22;10330;48.816;9.278;2022-10-22T16:27:08;19.30;99.90
20345;DHT22;10330;48.816;9.278;2022-10-22T16:29:38;19.20;99.90
20345;DHT22;10330;48.816;9.278;2022-10-22T16:32:13;19.20;99.90
20345;DHT22;10330;48.816;9.278;2022-10-22T16:34:41;19.10;99.90
20345;DHT22;10330;48.816;9.278;2022-10-22T16:37:07;19.00;99.90
20345;DHT22;10330;48.816;9.278;2022-10-22T16:39:35;19.00;99.90
20345;DHT22;10330;48.816;9.278;2022-10-22T16:42:01;18.90;99.90
20345;DHT22;10330;48.816;9.278;2022-10-22T16:44:27;18.80;99.90
20345;DHT22;10330;48.816;9.278;2022-10-22T16:46:53;18.80;99.90
20345;DHT22;10330;48.816;9.278;2022-10-22T16:49:20;18.70;99.90
20345;DHT22;10330;48.816;9.278;2022-10-22T16:51:46;18.70;99.90
20345;DHT22;10330;48.816;9.278;2022-10-22T16:54:12;18.60;99.90
20345;DHT22;10330;48.816;9.278;2022-10-22T16:56:40;18.60;99.90
20345;DHT22;10330;48.816;9.278;2022-10-22T16:59:07;18.50;99.90
20345;DHT22;10330;48.816;9.278;2022-10-22T17:01:33;18.40;99.90
20345;DHT22;10330;48.816;9.278;2022-10-22T17:03:59;18.30;99.90
20345;DHT22;10330;48.816;9.278;2022-10-22T17:06:26;18.20;99.90
20345;DHT22;10330;48.816;9.278;2022-10-22T17:08:56;18.00;99.90
20345;DHT22;10330;48.816;9.278;2022-10-22T17:11:45;17.90;99.90
20345;DHT22;10330;48.816;9.278;2022-10-22T17:14:12;17.80;99.90
20345;DHT22;10330;48.816;9.278;2022-10-22T17:16:51;17.70;99.90
20345;DHT22;10330;48.816;9.278;2022-10-22T17:19:29;17.40;99.90
20345;DHT22;10330;48.816;9.278;2022-10-22T17:22:05;17.40;99.90
20345;DHT22;10330;48.816;9.278;2022-10-22T17:27:36;17.20;99.90
20345;DHT22;10330;48.816;9.278;2022-10-22T17:30:04;17.10;99.90
20345;DHT22;10330;48.816;9.278;2022-10-22T17:32:34;17.00;99.90
20345;DHT22;10330;48.816;9.278;2022-10-22T17:35:01;17.00;99.90
20345;DHT22;10330;48.816;9.278;2022-10-22T17:37:27;17.00;99.90